Waterport, New York
Current Conditions -  °F | °C
As of 10:54 AM on Wednesday 22 Oct 2014 (Local Time) from KROC Reporting Station
Overcast Overcast  
Wind Chill: 42°   Ceiling: 1400
Heat Index: 47°   Visibility: 10mi
Dew Point: 42°   Wind: 12mph
Humidity: 83%   Direction: 30°NNE
Pressure: 30.21"   Gusts: NA
Location:  43.32°N, 78.25°W
Report Text: KROC 221454Z 03010KT 10SM OVC014 08/06 A3021 RMK AO2 SLP235 T00830056 51013
Loading
Personal Weather Stations






























Interactive Weather Map
Tropical Storm Tracking
New forecast layout! Learn more

10-Day Weather Forecast

Advertisements
Track Severe Weather on mobile